Time;durP1;ratioP1;P1;durP2;ratioP2;P2;SDS_P1;SDS_P2;PMS_P1;PMS_P2;Temp;Humidity;BMP_temperature;BMP_pressure;BME280_temperature;BME280_humidity;BME280_pressure;Samples;Min_cycle;Max_cycle;Signal;HPM_P1;HPM_P2
2021/08/12 00:02:06;;;;;;;5.97;4.62;;;;;;;19.47;58.44;99311.88;1707422;84;21499;-41
2021/08/12 00:04:33;;;;;;;5.95;4.37;;;;;;;19.51;58.45;99314.56;1707483;84;21076;-41
2021/08/12 00:06:59;;;;;;;8.65;4.47;;;;;;;19.49;58.30;99316.38;1707340;84;20926;-41
2021/08/12 00:09:26;;;;;;;7.45;4.37;;;;;;;19.47;58.24;99313.85;1707263;84;21092;-41
2021/08/12 00:11:53;;;;;;;9.45;4.75;;;;;;;19.41;58.48;99312.15;1707521;84;20973;-41
2021/08/12 00:14:20;;;;;;;8.50;4.60;;;;;;;19.32;58.76;99307.80;1707530;83;21084;-41
2021/08/12 00:16:47;;;;;;;7.22;4.22;;;;;;;19.24;59.15;99311.88;1707212;84;21757;-41
2021/08/12 00:19:13;;;;;;;7.05;4.90;;;;;;;19.17;59.38;99313.35;1707217;84;21045;-41
2021/08/12 00:21:41;;;;;;;6.08;4.30;;;;;;;19.10;59.57;99311.52;1707292;84;20989;-41
2021/08/12 00:24:08;;;;;;;5.90;4.60;;;;;;;19.03;59.75;99312.22;1707240;84;21539;-41
2021/08/12 00:26:34;;;;;;;5.58;4.20;;;;;;;18.98;59.92;99312.69;1707630;84;21806;-41
2021/08/12 00:29:04;;;;;;;7.97;4.42;;;;;;;18.94;60.32;99324.33;1707548;84;21133;-41
2021/08/12 00:31:32;;;;;;;5.10;4.30;;;;;;;18.95;60.25;99313.53;1707301;84;21770;-41
2021/08/12 00:33:59;;;;;;;6.20;4.15;;;;;;;19.00;60.38;99315.21;1699902;83;20988;-41
2021/08/12 00:36:25;;;;;;;5.92;3.72;;;;;;;19.03;60.31;99314.37;1713773;83;21005;-41
2021/08/12 00:38:53;;;;;;;5.55;3.85;;;;;;;19.00;60.55;99313.06;1679119;85;21843;-41
2021/08/12 00:41:20;;;;;;;6.45;4.67;;;;;;;18.99;60.83;99314.25;1687845;84;21846;-41
2021/08/12 00:43:47;;;;;;;6.22;4.37;;;;;;;19.01;60.98;99317.37;1707129;83;21091;-41
2021/08/12 00:46:13;;;;;;;5.83;4.40;;;;;;;19.00;61.16;99320.70;1707350;82;20964;-41
2021/08/12 00:48:40;;;;;;;6.58;4.30;;;;;;;19.01;61.52;99325.61;1707318;84;20998;-41
2021/08/12 00:51:07;;;;;;;5.17;4.30;;;;;;;18.98;61.46;99326.42;1707304;84;21032;-41
2021/08/12 00:53:34;;;;;;;7.17;4.10;;;;;;;18.92;61.62;99323.98;1707237;84;21122;-41
2021/08/12 00:56:02;;;;;;;7.17;4.03;;;;;;;18.89;61.65;99331.67;1707351;84;20890;-41
2021/08/12 00:58:33;;;;;;;4.65;4.15;;;;;;;18.87;61.73;99328.58;1707586;84;20989;-41
2021/08/12 01:01:00;;;;;;;6.75;4.33;;;;;;;18.89;61.77;99333.05;1707204;84;21645;-41
2021/08/12 01:03:27;;;;;;;5.60;4.62;;;;;;;18.86;61.81;99328.39;1707327;84;21056;-41
2021/08/12 01:05:57;;;;;;;6.62;5.00;;;;;;;18.80;61.93;99329.45;1707311;84;21113;-41
2021/08/12 01:08:42;;;;;;;5.75;4.62;;;;;;;18.77;62.08;99330.88;1743391;82;20958;-41
2021/08/12 01:11:37;;;;;;;7.87;4.62;;;;;;;18.74;62.14;99330.32;1736745;82;21480;-41
2021/08/12 01:14:27;;;;;;;6.47;4.78;;;;;;;18.71;62.21;99338.03;1743328;82;21041;-41
2021/08/12 01:17:04;;;;;;;7.20;4.58;;;;;;;18.65;62.32;99336.34;1743143;81;21053;-41
2021/08/12 01:20:07;;;;;;;5.30;4.57;;;;;;;18.64;62.38;99336.93;1707770;83;21178;-41
2021/08/12 01:22:47;;;;;;;5.65;5.05;;;;;;;18.68;62.44;99336.13;1707295;84;20954;-41
2021/08/12 01:25:23;;;;;;;6.97;4.85;;;;;;;18.63;62.60;99340.11;1707671;84;21056;-41
2021/08/12 01:27:51;;;;;;;6.58;5.30;;;;;;;18.58;62.75;99345.47;1707454;84;20938;-41
2021/08/12 01:30:18;;;;;;;9.30;5.62;;;;;;;18.54;62.91;99341.97;1707466;84;21060;-41
2021/08/12 01:33:02;;;;;;;7.22;5.47;;;;;;;18.53;63.08;99345.13;1707426;84;21198;-41
2021/08/12 01:35:31;;;;;;;8.13;5.30;;;;;;;18.47;63.21;99343.42;1741462;81;21033;-41
2021/08/12 01:38:05;;;;;;;7.30;5.25;;;;;;;18.41;63.43;99341.54;1743137;82;20958;-41
2021/08/12 01:40:33;;;;;;;6.97;4.78;;;;;;;18.41;63.65;99347.81;1743337;82;21046;-41
2021/08/12 01:43:03;;;;;;;6.30;5.30;;;;;;;18.47;63.54;99345.39;1743186;81;20994;-41
2021/08/12 01:45:29;;;;;;;8.33;5.27;;;;;;;18.47;63.48;99342.05;1758934;81;21128;-41
2021/08/12 01:47:58;;;;;;;7.78;5.37;;;;;;;18.46;63.56;99340.49;1769567;81;20969;-41
2021/08/12 01:50:25;;;;;;;7.67;5.75;;;;;;;18.46;63.68;99339.71;1769678;81;21070;-41
2021/08/12 01:52:52;;;;;;;7.67;5.17;;;;;;;18.44;63.76;99344.86;1737108;81;20981;-41
2021/08/12 01:55:28;;;;;;;7.08;5.10;;;;;;;18.37;63.97;99351.20;1770103;81;21013;-41
2021/08/12 01:57:56;;;;;;;7.72;4.58;;;;;;;18.31;64.08;99350.09;1769745;81;21130;-41
2021/08/12 02:00:24;;;;;;;7.58;5.10;;;;;;;18.25;64.31;99348.98;1769957;81;21019;-41
2021/08/12 02:02:51;;;;;;;6.92;5.50;;;;;;;18.29;64.39;99350.34;1769513;81;21471;-41
2021/08/12 02:05:18;;;;;;;6.30;4.97;;;;;;;18.30;64.24;99351.28;1769385;81;21033;-41
2021/08/12 02:07:47;;;;;;;6.37;5.05;;;;;;;18.29;64.35;99354.45;1769746;81;21344;-41
2021/08/12 02:10:16;;;;;;;7.28;5.28;;;;;;;18.26;64.61;99349.17;1769704;81;21093;-41
2021/08/12 02:12:43;;;;;;;7.27;5.53;;;;;;;18.23;64.62;99350.79;1755204;81;21028;-41
2021/08/12 02:15:12;;;;;;;7.33;4.92;;;;;;;18.22;64.72;99356.09;1685886;84;21048;-41
2021/08/12 02:17:38;;;;;;;10.05;5.60;;;;;;;18.25;64.80;99353.10;1691307;84;21032;-41
2021/08/12 02:20:10;;;;;;;7.42;5.17;;;;;;;18.27;64.64;99352.11;1701522;83;21515;-41
2021/08/12 02:22:45;;;;;;;6.25;5.20;;;;;;;18.29;64.71;99350.34;1720257;83;21114;-41
2021/08/12 02:25:29;;;;;;;6.15;5.22;;;;;;;18.27;64.99;99351.33;1719548;82;21499;-41
2021/08/12 02:27:59;;;;;;;6.33;5.30;;;;;;;18.22;65.14;99349.82;1720336;83;21562;-41
2021/08/12 02:30:25;;;;;;;10.15;5.70;;;;;;;18.17;65.14;99350.27;1715218;82;21040;-41
2021/08/12 02:32:52;;;;;;;8.43;5.00;;;;;;;18.14;65.53;99359.34;1720394;83;21056;-41
2021/08/12 02:35:19;;;;;;;5.80;5.20;;;;;;;18.13;65.67;99353.66;1691360;84;21143;-41
2021/08/12 02:37:48;;;;;;;6.45;5.08;;;;;;;18.16;65.56;99356.35;1691578;84;20979;-41
2021/08/12 02:40:15;;;;;;;6.00;5.05;;;;;;;18.15;65.44;99366.38;1691736;84;20987;-41
2021/08/12 02:42:42;;;;;;;6.12;5.53;;;;;;;18.10;65.73;99364.09;1691590;84;21489;-41
2021/08/12 02:45:10;;;;;;;8.05;5.30;;;;;;;18.06;65.65;99361.36;1678016;84;21044;-41
2021/08/12 02:47:37;;;;;;;10.03;5.35;;;;;;;18.04;65.70;99361.61;1721092;83;21068;-41
2021/08/12 02:50:05;;;;;;;6.22;4.62;;;;;;;18.01;65.67;99366.55;1721152;83;21025;-41
2021/08/12 02:52:34;;;;;;;5.78;5.05;;;;;;;17.98;65.77;99361.86;1721121;83;20985;-41
2021/08/12 02:55:02;;;;;;;9.40;5.37;;;;;;;18.02;65.70;99363.97;1721520;83;21589;-41
2021/08/12 02:57:29;;;;;;;7.75;5.05;;;;;;;18.04;65.86;99365.72;1686538;85;21048;-41
2021/08/12 02:59:56;;;;;;;8.90;5.60;;;;;;;18.06;65.94;99361.95;1721130;83;21134;-41
2021/08/12 03:02:22;;;;;;;7.53;5.15;;;;;;;18.08;65.70;99365.08;1721213;83;20937;-41
2021/08/12 03:04:49;;;;;;;7.10;5.58;;;;;;;18.07;65.76;99375.86;1721023;83;21365;-41
2021/08/12 03:07:18;;;;;;;6.53;5.05;;;;;;;18.08;65.70;99375.47;1721231;83;21590;-41
2021/08/12 03:09:48;;;;;;;5.20;4.70;;;;;;;18.11;65.71;99377.97;1699950;83;21048;-41
2021/08/12 03:12:17;;;;;;;6.70;5.37;;;;;;;18.14;65.54;99382.06;1709225;83;21146;-41
2021/08/12 03:14:45;;;;;;;6.65;5.28;;;;;;;18.18;65.60;99377.91;1714948;83;21049;-41
2021/08/12 03:17:12;;;;;;;5.85;5.25;;;;;;;18.20;65.36;99382.40;1715097;83;21037;-41
2021/08/12 03:19:43;;;;;;;9.18;5.70;;;;;;;18.21;65.35;99386.09;1710681;82;21101;-41
2021/08/12 03:22:12;;;;;;;7.28;5.40;;;;;;;18.22;65.27;99389.02;1716454;83;21070;-41
2021/08/12 03:24:43;;;;;;;8.65;4.65;;;;;;;18.20;65.36;99385.14;1710662;83;21804;-41
2021/08/12 03:27:11;;;;;;;7.35;4.92;;;;;;;18.21;65.07;99392.16;1721278;83;21036;-41
2021/08/12 03:29:40;;;;;;;8.48;4.95;;;;;;;18.24;65.04;99395.48;1721063;83;20989;-41
2021/08/12 03:32:07;;;;;;;7.87;5.42;;;;;;;18.23;64.89;99395.29;1721059;83;21049;-40
2021/08/12 03:34:36;;;;;;;8.75;5.20;;;;;;;18.17;64.98;99402.41;1721113;83;21083;-41
2021/08/12 03:37:04;;;;;;;7.67;5.40;;;;;;;18.15;65.11;99411.66;1690570;83;21826;-41
2021/08/12 03:39:32;;;;;;;9.83;5.50;;;;;;;18.12;65.16;99406.97;1715169;83;21041;-41
2021/08/12 03:41:59;;;;;;;7.65;4.80;;;;;;;18.10;65.19;99410.14;1714965;83;21044;-41
2021/08/12 03:44:26;;;;;;;6.70;4.97;;;;;;;18.09;65.27;99416.03;1714727;83;20956;-41
2021/08/12 03:46:53;;;;;;;8.50;5.37;;;;;;;18.10;65.27;99417.59;1707976;83;21048;-41
2021/08/12 03:49:19;;;;;;;6.30;5.47;;;;;;;18.07;65.26;99421.91;1707149;84;21160;-41
2021/08/12 03:51:47;;;;;;;9.05;5.55;;;;;;;18.03;65.52;99421.77;1707250;84;21016;-41
2021/08/12 03:54:14;;;;;;;8.73;5.42;;;;;;;17.99;65.67;99419.66;1707215;84;20972;-41
2021/08/12 03:56:41;;;;;;;7.30;6.17;;;;;;;17.96;65.67;99428.09;1707192;84;21061;-41
2021/08/12 03:59:09;;;;;;;8.95;5.37;;;;;;;17.91;65.89;99423.05;1707537;83;21049;-41
2021/08/12 04:01:35;;;;;;;7.55;5.60;;;;;;;17.93;65.85;99423.43;1707250;84;21127;-41
2021/08/12 04:04:03;;;;;;;6.47;5.28;;;;;;;17.99;65.56;99423.77;1707525;84;21076;-41
2021/08/12 04:06:31;;;;;;;6.60;5.75;;;;;;;18.03;65.49;99425.30;1707417;83;21025;-41
2021/08/12 04:08:58;;;;;;;6.60;5.83;;;;;;;18.03;65.47;99423.14;1707600;84;21084;-41
2021/08/12 04:11:24;;;;;;;6.87;5.40;;;;;;;18.01;65.55;99424.16;1707222;84;21021;-41
2021/08/12 04:13:51;;;;;;;7.97;5.90;;;;;;;18.00;65.62;99420.63;1707574;84;21910;-41
2021/08/12 04:16:18;;;;;;;8.15;4.87;;;;;;;18.00;65.71;99419.84;1707031;84;21307;-41
2021/08/12 04:18:46;;;;;;;6.20;5.17;;;;;;;18.02;65.73;99429.80;1707526;84;21044;-41
2021/08/12 04:21:12;;;;;;;7.78;5.33;;;;;;;18.11;65.79;99437.73;1707231;84;21053;-41
2021/08/12 04:23:39;;;;;;;6.53;4.90;;;;;;;18.21;65.52;99429.21;1698987;83;22002;-41
2021/08/12 04:26:05;;;;;;;6.85;5.22;;;;;;;18.25;65.38;99443.08;1733763;82;21133;-41
2021/08/12 04:28:32;;;;;;;8.18;5.60;;;;;;;18.25;65.61;99447.78;1743017;81;20962;-41
2021/08/12 04:31:00;;;;;;;7.33;5.05;;;;;;;18.28;65.45;99446.20;1743205;82;20997;-41
2021/08/12 04:33:29;;;;;;;7.40;4.75;;;;;;;18.25;65.20;99452.68;1742995;82;21472;-41
2021/08/12 04:35:56;;;;;;;6.58;4.90;;;;;;;18.25;65.19;99447.78;1743225;81;20990;-41
2021/08/12 04:38:25;;;;;;;10.08;5.00;;;;;;;18.26;65.27;99454.84;1742919;82;21850;-41
2021/08/12 04:40:53;;;;;;;6.35;4.90;;;;;;;18.24;65.26;99455.85;1743108;82;21037;-41
2021/08/12 04:43:20;;;;;;;7.25;4.90;;;;;;;18.23;65.43;99455.66;1742975;82;20946;-41
2021/08/12 04:45:47;;;;;;;8.55;4.92;;;;;;;18.22;65.45;99457.63;1722077;82;21085;-41
2021/08/12 04:48:15;;;;;;;7.75;4.83;;;;;;;18.23;65.27;99452.92;1715027;82;21496;-41
2021/08/12 04:50:42;;;;;;;6.25;4.70;;;;;;;18.25;65.04;99450.53;1743154;82;21135;-41
2021/08/12 04:53:09;;;;;;;7.03;4.90;;;;;;;18.27;65.34;99447.38;1742893;82;21029;-41
2021/08/12 04:55:36;;;;;;;6.30;4.87;;;;;;;18.28;65.29;99446.98;1743074;82;21013;-41
2021/08/12 04:58:04;;;;;;;7.83;4.55;;;;;;;18.30;65.29;99452.83;1743037;82;20929;-41
2021/08/12 05:00:32;;;;;;;6.42;4.47;;;;;;;18.32;65.08;99455.95;1742824;82;21076;-41
2021/08/12 05:02:59;;;;;;;7.78;4.65;;;;;;;18.33;64.80;99449.28;1743028;82;21148;-41
2021/08/12 05:05:26;;;;;;;8.03;4.70;;;;;;;18.39;65.05;99454.52;1742931;82;21071;-41
2021/08/12 05:07:55;;;;;;;7.08;4.40;;;;;;;18.46;64.69;99454.41;1743030;81;20993;-41
2021/08/12 05:10:22;;;;;;;6.53;4.70;;;;;;;18.52;64.67;99454.75;1742946;82;21363;-41
2021/08/12 05:12:52;;;;;;;7.37;4.87;;;;;;;18.55;64.01;99458.06;1737937;81;21026;-41
2021/08/12 05:15:20;;;;;;;6.75;4.47;;;;;;;18.58;63.87;99462.76;1713301;82;21083;-41
2021/08/12 05:17:47;;;;;;;6.58;4.37;;;;;;;18.63;63.97;99460.93;1713297;83;21586;-41
2021/08/12 05:20:15;;;;;;;6.08;4.30;;;;;;;18.66;63.63;99465.00;1713384;83;20930;-41
2021/08/12 05:22:42;;;;;;;5.15;4.45;;;;;;;18.78;63.56;99465.66;1713320;83;21673;-41
2021/08/12 05:25:11;;;;;;;7.05;4.00;;;;;;;18.86;63.23;99465.73;1722526;82;21017;-41
2021/08/12 05:27:38;;;;;;;5.45;4.20;;;;;;;18.92;62.58;99465.47;1743095;82;21795;-41
2021/08/12 05:30:06;;;;;;;6.25;4.70;;;;;;;18.98;62.37;99465.95;1742846;82;20966;-41
2021/08/12 05:32:33;;;;;;;8.25;4.53;;;;;;;19.03;62.18;99478.45;1742954;82;21014;-41
2021/08/12 05:35:02;;;;;;;6.37;4.53;;;;;;;19.05;62.02;99471.95;1743141;81;21077;-41
2021/08/12 05:37:29;;;;;;;5.72;4.40;;;;;;;19.10;62.05;99473.66;1742932;82;21587;-41
2021/08/12 05:39:56;;;;;;;5.22;3.60;;;;;;;19.16;62.13;99472.59;1685755;84;21133;-41
2021/08/12 05:42:23;;;;;;;4.62;4.03;;;;;;;19.26;61.78;99472.26;1707113;84;21535;-41
2021/08/12 05:44:51;;;;;;;6.05;3.75;;;;;;;19.35;61.37;99468.39;1698357;84;21162;-41
2021/08/12 05:47:20;;;;;;;7.70;4.28;;;;;;;19.38;61.03;99475.20;1735706;81;21523;-41
2021/08/12 05:49:48;;;;;;;5.37;4.10;;;;;;;19.37;60.07;99472.86;1759789;81;21375;-41
2021/08/12 05:52:16;;;;;;;5.80;4.17;;;;;;;19.33;60.83;99467.42;1755558;81;21682;-41
2021/08/12 05:54:43;;;;;;;7.97;4.15;;;;;;;19.35;61.31;99464.27;1756530;81;21057;-41
2021/08/12 05:57:11;;;;;;;4.55;3.55;;;;;;;19.42;61.80;99469.05;1756465;81;21032;-41
2021/08/12 05:59:38;;;;;;;5.42;3.80;;;;;;;19.55;61.31;99468.52;1756350;81;20945;-41
2021/08/12 06:02:04;;;;;;;5.28;3.90;;;;;;;19.68;60.74;99468.09;1756589;81;21002;-41
2021/08/12 06:04:36;;;;;;;5.78;3.60;;;;;;;19.84;60.48;99470.98;1756450;81;21493;-41
2021/08/12 06:07:04;;;;;;;9.75;3.98;;;;;;;19.97;60.14;99476.06;1720308;83;21046;-41
2021/08/12 06:09:32;;;;;;;5.03;3.85;;;;;;;20.09;59.49;99473.31;1720616;83;21012;-41
2021/08/12 06:11:59;;;;;;;5.45;3.75;;;;;;;20.16;58.48;99470.41;1720575;83;21534;-41
2021/08/12 06:14:26;;;;;;;5.65;4.12;;;;;;;20.17;58.13;99474.72;1720600;83;21004;-41
2021/08/12 06:16:53;;;;;;;4.60;3.50;;;;;;;20.19;58.42;99482.73;1720493;83;21120;-41
2021/08/12 06:19:21;;;;;;;4.47;3.30;;;;;;;20.23;58.19;99478.55;1720435;83;20964;-41
2021/08/12 06:21:49;;;;;;;7.35;3.60;;;;;;;20.24;57.77;99478.11;1720568;83;21546;-41
2021/08/12 06:24:17;;;;;;;5.83;3.50;;;;;;;20.28;57.59;99480.83;1720723;82;21039;-41
2021/08/12 06:26:46;;;;;;;5.13;3.10;;;;;;;20.29;57.40;99480.38;1720738;83;21001;-41
2021/08/12 06:29:13;;;;;;;4.33;3.27;;;;;;;20.30;57.59;99481.97;1720770;83;21827;-41
2021/08/12 06:31:40;;;;;;;4.55;3.62;;;;;;;20.34;57.93;99478.55;1720357;83;21072;-41
2021/08/12 06:34:07;;;;;;;3.62;3.08;;;;;;;20.41;57.63;99481.00;1710936;82;20971;-41
2021/08/12 06:36:34;;;;;;;5.42;3.60;;;;;;;20.44;56.86;99481.52;1691705;84;21072;-41
2021/08/12 06:39:02;;;;;;;4.25;3.45;;;;;;;20.45;56.75;99483.86;1691830;84;21020;-41
2021/08/12 06:41:29;;;;;;;4.35;3.35;;;;;;;20.43;56.77;99489.63;1691639;84;21363;-41
2021/08/12 06:43:58;;;;;;;4.20;3.65;;;;;;;20.39;56.80;99480.81;1691717;84;20981;-41
2021/08/12 06:46:24;;;;;;;4.65;3.47;;;;;;;20.41;56.93;99487.88;1710060;83;21002;-41
2021/08/12 06:48:51;;;;;;;4.90;3.55;;;;;;;20.45;56.58;99481.70;1758675;81;21578;-41
2021/08/12 06:51:19;;;;;;;5.65;3.40;;;;;;;20.51;56.31;99485.52;1758758;81;21036;-41
2021/08/12 06:53:48;;;;;;;7.83;2.83;;;;;;;20.59;56.18;99482.20;1758642;81;21083;-41
2021/08/12 06:56:15;;;;;;;4.10;2.95;;;;;;;20.67;54.84;99473.21;1739633;81;21013;-41
2021/08/12 06:58:44;;;;;;;6.37;3.08;;;;;;;20.74;55.50;99475.20;1758858;81;21546;-41
2021/08/12 07:01:13;;;;;;;4.33;3.00;;;;;;;20.85;55.16;99481.10;1758710;81;20925;-41
2021/08/12 07:03:40;;;;;;;4.83;3.22;;;;;;;20.95;55.25;99476.75;1758734;81;21802;-41
2021/08/12 07:06:07;;;;;;;4.87;3.10;;;;;;;21.08;55.04;99481.77;1758685;81;21138;-41
2021/08/12 07:08:34;;;;;;;4.00;2.95;;;;;;;21.21;53.83;99491.55;1758656;81;20968;-41
2021/08/12 07:11:02;;;;;;;4.67;3.37;;;;;;;21.31;52.56;99491.14;1758646;81;21012;-41
2021/08/12 07:13:29;;;;;;;3.45;2.75;;;;;;;21.34;52.33;99480.05;1729713;81;21634;-41
2021/08/12 07:15:59;;;;;;;3.95;2.90;;;;;;;21.40;52.39;99486.59;1713600;83;21002;-41
2021/08/12 07:18:27;;;;;;;4.62;3.02;;;;;;;21.48;52.83;99492.73;1713599;82;21048;-41
2021/08/12 07:20:54;;;;;;;5.92;3.27;;;;;;;21.59;52.26;99494.02;1713653;83;21481;-41
2021/08/12 07:23:23;;;;;;;7.87;3.10;;;;;;;21.69;53.06;99506.78;1713415;82;21018;-41
2021/08/12 07:25:51;;;;;;;3.30;2.90;;;;;;;21.77;51.82;99499.13;1731222;82;21548;-41
2021/08/12 07:28:18;;;;;;;3.22;2.72;;;;;;;21.87;51.33;99504.22;1743236;82;21539;-41
2021/08/12 07:30:46;;;;;;;3.90;3.27;;;;;;;21.93;51.02;99501.11;1743340;81;21136;-41
2021/08/12 07:33:14;;;;;;;3.42;3.10;;;;;;;22.00;50.52;99503.71;1738457;81;20970;-45
2021/08/12 07:35:43;;;;;;;6.70;3.02;;;;;;;21.96;50.02;99495.53;1743368;81;21009;-41
2021/08/12 07:38:10;;;;;;;8.93;3.65;;;;;;;22.15;50.63;99515.17;1743283;82;21654;-41
2021/08/12 07:40:37;;;;;;;4.20;3.45;;;;;;;22.24;50.06;99513.95;1743310;82;21068;-41
2021/08/12 07:43:05;;;;;;;6.35;3.27;;;;;;;22.31;49.10;99506.27;1743319;82;21951;-41
2021/08/12 07:45:33;;;;;;;8.43;2.92;;;;;;;22.36;47.78;99515.41;1743083;82;21008;-41
2021/08/12 07:48:00;;;;;;;5.78;3.35;;;;;;;22.40;47.17;99515.30;1754313;81;21015;-41
2021/08/12 07:50:27;;;;;;;4.30;3.20;;;;;;;22.43;47.62;99518.56;1756595;81;21528;-41
2021/08/12 07:52:54;;;;;;;5.33;3.30;;;;;;;22.51;47.63;99515.80;1756720;81;21549;-41
2021/08/12 07:55:22;;;;;;;4.35;3.20;;;;;;;22.59;47.47;99508.86;1756666;81;21087;-41
2021/08/12 07:57:48;;;;;;;3.67;3.15;;;;;;;22.73;47.10;99507.72;1756694;81;21012;-41
2021/08/12 08:00:17;;;;;;;3.95;3.12;;;;;;;22.84;46.88;99515.10;1756499;81;20984;-41
2021/08/12 08:02:45;;;;;;;3.77;2.90;;;;;;;22.95;46.54;99512.19;1756931;81;20957;-42
2021/08/12 08:05:18;;;;;;;3.30;3.00;;;;;;;23.04;44.37;99512.16;1756829;81;21037;-41
2021/08/12 08:07:51;;;;;;;4.47;3.52;;;;;;;23.08;45.54;99503.93;1716330;83;20960;-41
2021/08/12 08:10:18;;;;;;;5.42;3.02;;;;;;;23.15;45.29;99514.77;1720208;83;20992;-41
2021/08/12 08:12:44;;;;;;;5.72;3.37;;;;;;;23.25;44.21;99510.12;1691525;84;20995;-41
2021/08/12 08:15:13;;;;;;;7.67;3.27;;;;;;;23.31;43.97;99516.06;1691772;84;21087;-41
2021/08/12 08:17:40;;;;;;;6.05;3.52;;;;;;;23.36;42.92;99520.27;1662519;86;21060;-41
2021/08/12 08:20:09;;;;;;;4.03;3.15;;;;;;;23.41;42.69;99525.25;1691561;84;21139;-41
2021/08/12 08:22:37;;;;;;;5.23;3.10;;;;;;;23.45;42.75;99516.27;1662611;86;21609;-41
2021/08/12 08:25:05;;;;;;;4.10;3.10;;;;;;;23.51;43.96;99515.88;1684064;84;21072;-41
2021/08/12 08:27:32;;;;;;;4.13;3.33;;;;;;;23.65;42.87;99522.95;1663938;86;21557;-41
2021/08/12 08:30:01;;;;;;;4.83;3.40;;;;;;;23.77;42.05;99516.02;1662362;86;21111;-41
2021/08/12 08:32:28;;;;;;;5.47;3.20;;;;;;;23.87;42.18;99518.91;1691836;84;21121;-41
2021/08/12 08:34:55;;;;;;;4.65;3.72;;;;;;;23.95;41.47;99522.98;1702012;83;20948;-41
2021/08/12 08:37:23;;;;;;;4.90;3.75;;;;;;;23.96;41.00;99513.45;1720429;83;21043;-42
2021/08/12 08:39:50;;;;;;;5.87;3.22;;;;;;;23.96;42.21;99525.92;1720605;83;21040;-41
2021/08/12 08:42:20;;;;;;;6.53;3.75;;;;;;;24.05;41.65;99524.62;1696698;83;21061;-41
2021/08/12 08:44:47;;;;;;;5.72;3.50;;;;;;;24.12;40.53;99522.98;1691589;83;21181;-41
2021/08/12 08:47:14;;;;;;;5.05;3.80;;;;;;;24.15;40.56;99516.57;1656291;86;21008;-42
2021/08/12 08:49:44;;;;;;;4.78;3.72;;;;;;;24.19;40.58;99528.33;1705364;84;21029;-42
2021/08/12 08:52:12;;;;;;;4.33;3.13;;;;;;;24.23;40.31;99524.22;1706039;83;21040;-42
2021/08/12 08:54:40;;;;;;;6.37;3.92;;;;;;;24.31;40.42;99528.89;1705567;84;21092;-41
2021/08/12 08:57:08;;;;;;;4.47;3.65;;;;;;;24.38;39.96;99536.97;1732469;82;21768;-41
2021/08/12 08:59:36;;;;;;;6.03;3.47;;;;;;;24.47;40.08;99532.89;1734934;82;21001;-41
2021/08/12 09:02:07;;;;;;;4.95;3.22;;;;;;;24.55;39.73;99528.64;1734741;82;21080;-42
2021/08/12 09:04:35;;;;;;;5.12;4.00;;;;;;;24.62;38.48;99538.09;1734652;82;21017;-41
2021/08/12 09:07:09;;;;;;;6.30;3.75;;;;;;;24.66;38.69;99537.97;1735033;82;21084;-41
2021/08/12 09:09:37;;;;;;;5.90;3.85;;;;;;;24.68;38.60;99534.92;1728788;82;21189;-41
2021/08/12 09:12:05;;;;;;;5.22;3.58;;;;;;;24.75;39.35;99542.19;1734899;82;21012;-41
2021/08/12 09:14:38;;;;;;;4.28;3.40;;;;;;;24.84;39.25;99537.31;1734815;82;21555;-41
2021/08/12 09:17:22;;;;;;;4.33;3.35;;;;;;;24.92;39.24;99539.43;1734707;82;20969;-41
2021/08/12 09:20:08;;;;;;;4.95;3.30;;;;;;;25.00;37.44;99545.48;1734845;82;21009;-41
2021/08/12 09:23:02;;;;;;;7.12;3.72;;;;;;;24.98;38.29;99551.47;1735039;82;21099;-41
2021/08/12 09:25:47;;;;;;;7.53;3.60;;;;;;;24.93;38.13;99550.66;1711070;82;21034;-41
2021/08/12 09:28:31;;;;;;;4.87;3.60;;;;;;;24.91;38.08;99539.88;1705421;84;21185;-41
2021/08/12 09:31:04;;;;;;;5.37;3.25;;;;;;;24.93;37.70;99531.89;1705977;82;21539;-41
2021/08/12 09:33:43;;;;;;;6.80;3.60;;;;;;;24.96;37.64;99537.30;1705773;82;21092;-41
2021/08/12 09:36:30;;;;;;;7.15;3.80;;;;;;;25.02;37.36;99543.81;1705503;84;20938;-41
2021/08/12 09:39:13;;;;;;;6.17;3.50;;;;;;;25.11;37.69;99544.47;1705607;83;21682;-41
2021/08/12 09:41:54;;;;;;;6.80;3.40;;;;;;;25.26;37.31;99547.48;1705451;84;21603;-41
2021/08/12 09:44:53;;;;;;;5.37;3.75;;;;;;;25.40;38.12;99546.94;1705466;84;21009;-41
2021/08/12 09:47:27;;;;;;;4.80;3.52;;;;;;;25.55;36.97;99541.64;1709083;83;21539;-41
2021/08/12 09:49:59;;;;;;;5.00;4.15;;;;;;;25.58;35.69;99546.27;1719198;83;21165;-41
2021/08/12 09:52:36;;;;;;;4.35;3.90;;;;;;;25.59;35.72;99545.05;1718629;83;21031;-41
2021/08/12 09:55:15;;;;;;;5.40;4.15;;;;;;;25.65;36.14;99540.45;1717687;83;21264;-41
2021/08/12 09:57:46;;;;;;;5.97;4.40;;;;;;;25.72;35.94;99542.92;1718914;83;21053;-41
2021/08/12 10:02:31;;;;;;;5.60;4.15;;;;;;;26.03;36.51;99529.75;1782925;79;22804;-41
2021/08/12 10:05:05;;;;;;;6.58;3.92;;;;;;;26.17;36.38;99538.89;1755497;81;20951;-41
2021/08/12 10:07:41;;;;;;;6.87;4.17;;;;;;;26.42;35.20;99532.91;1755187;81;22051;-41
2021/08/12 10:10:11;;;;;;;7.83;4.20;;;;;;;26.52;35.06;99533.85;1755239;81;21609;-42
2021/08/12 10:12:43;;;;;;;5.78;3.92;;;;;;;26.66;34.95;99538.02;1755317;81;20995;-42
2021/08/12 10:15:11;;;;;;;5.17;4.00;;;;;;;26.82;34.02;99529.33;1733904;81;20977;-42
2021/08/12 10:17:41;;;;;;;5.58;3.62;;;;;;;26.96;34.78;99530.75;1726879;83;20988;-42
2021/08/12 10:20:17;;;;;;;5.40;3.67;;;;;;;27.13;34.27;99529.92;1726884;83;21150;-41
2021/08/12 10:22:46;;;;;;;6.67;4.03;;;;;;;27.25;33.46;99524.77;1709141;81;20969;-41
2021/08/12 10:25:13;;;;;;;5.03;3.52;;;;;;;27.32;33.86;99529.25;1736931;81;21061;-41
2021/08/12 10:27:41;;;;;;;5.35;4.00;;;;;;;27.38;34.05;99525.21;1694805;83;21091;-42
2021/08/12 10:30:10;;;;;;;4.65;3.60;;;;;;;27.53;33.98;99534.47;1723668;83;21055;-42
2021/08/12 10:32:39;;;;;;;4.95;3.60;;;;;;;27.78;32.99;99528.48;1723355;83;21330;-42
2021/08/12 10:35:08;;;;;;;5.78;3.60;;;;;;;28.02;32.96;99534.84;1723748;83;20980;-42
2021/08/12 10:37:34;;;;;;;4.67;3.50;;;;;;;28.21;32.84;99531.95;1695212;83;21011;-42
2021/08/12 10:40:01;;;;;;;4.83;3.50;;;;;;;28.22;31.71;99538.45;1723715;83;21011;-42
2021/08/12 10:42:28;;;;;;;6.00;3.27;;;;;;;28.10;32.03;99539.42;1723274;83;21032;-42
2021/08/12 10:44:55;;;;;;;4.10;3.30;;;;;;;28.03;32.60;99533.56;1723475;81;21132;-42
2021/08/12 10:47:43;;;;;;;6.12;3.55;;;;;;;27.99;31.98;99541.34;1723118;83;20913;-42
2021/08/12 10:50:27;;;;;;;3.40;3.08;;;;;;;28.01;33.38;99540.88;1723710;83;22121;-42
2021/08/12 10:53:14;;;;;;;3.98;3.30;;;;;;;28.17;32.33;99527.19;1723341;83;20940;-42
2021/08/12 10:55:49;;;;;;;6.85;3.45;;;;;;;28.32;32.21;99536.37;1723794;83;21546;-42
2021/08/12 10:58:32;;;;;;;4.10;2.70;;;;;;;28.41;31.59;99523.75;1723423;83;21134;-42
2021/08/12 11:01:08;;;;;;;4.28;3.00;;;;;;;28.50;32.27;99539.79;1721072;83;20917;-42
2021/08/12 11:03:53;;;;;;;9.10;3.20;;;;;;;28.64;31.65;99537.50;1751708;81;20934;-42
2021/08/12 11:06:22;;;;;;;9.00;3.25;;;;;;;28.78;31.00;99552.90;1714088;83;20981;-42
2021/08/12 11:08:54;;;;;;;4.60;3.20;;;;;;;28.83;30.55;99536.89;1715873;83;21008;-42
2021/08/12 11:11:31;;;;;;;6.15;3.42;;;;;;;28.79;30.51;99534.14;1751882;81;21137;-42
2021/08/12 11:14:13;;;;;;;3.87;2.87;;;;;;;28.81;31.10;99536.58;1684076;83;21015;-42
2021/08/12 11:16:49;;;;;;;3.77;3.10;;;;;;;28.91;31.49;99549.20;1721379;82;21064;-42
2021/08/12 11:19:31;;;;;;;3.87;3.25;;;;;;;29.08;30.88;99541.77;1721325;83;21559;-42
2021/08/12 11:21:59;;;;;;;4.00;3.33;;;;;;;29.22;30.55;99542.38;1721654;83;21076;-42
2021/08/12 11:24:31;;;;;;;4.80;3.50;;;;;;;29.07;30.65;99545.17;1738127;82;21138;-42
2021/08/12 11:27:02;;;;;;;5.75;3.70;;;;;;;28.88;31.42;99539.63;1751172;82;20992;-42
2021/08/12 11:29:36;;;;;;;6.45;3.27;;;;;;;28.86;31.56;99542.89;1751139;82;21492;-43
2021/08/12 11:32:17;;;;;;;4.60;3.17;;;;;;;29.03;31.61;99542.44;1714960;83;21032;-43
2021/08/12 11:34:56;;;;;;;6.05;3.50;;;;;;;29.22;30.44;99564.09;1719360;83;21037;-42
2021/08/12 11:37:29;;;;;;;5.12;3.20;;;;;;;29.15;29.89;99552.53;1725278;83;21116;-42
2021/08/12 11:40:03;;;;;;;3.65;3.00;;;;;;;28.90;30.07;99554.63;1721234;83;21068;-42
2021/08/12 11:42:36;;;;;;;4.10;3.12;;;;;;;28.73;31.27;99556.98;1721225;82;20965;-42
2021/08/12 11:45:09;;;;;;;4.08;3.00;;;;;;;28.60;31.21;99522.35;1721252;80;21476;-42
2021/08/12 11:47:37;;;;;;;5.17;3.35;;;;;;;29.09;30.69;99555.88;1721396;83;22165;-43
2021/08/12 11:50:07;;;;;;;5.20;3.25;;;;;;;29.09;30.29;99557.27;1721363;83;21112;-42